Time;durP1;ratioP1;P1;durP2;ratioP2;P2;SDS_P1;SDS_P2;PMS_P1;PMS_P2;Temp;Humidity;BMP_temperature;BMP_pressure;BME280_temperature;BME280_humidity;BME280_pressure;Samples;Min_cycle;Max_cycle;Signal;HPM_P1;HPM_P2
2021/04/11 00:00:02;;;;;;;60.47;7.10;;;11.00;1.00;;;;;;5071839;28;20527;-66
2021/04/11 00:02:28;;;;;;;61.20;7.47;;;11.00;1.00;;;;;;5071899;28;20796;-66
2021/04/11 00:04:55;;;;;;;62.60;7.80;;;10.90;1.00;;;;;;5071696;28;20522;-66
2021/04/11 00:07:22;;;;;;;70.17;8.90;;;10.80;1.00;;;;;;5071734;28;20533;-66
2021/04/11 00:09:48;;;;;;;62.20;7.57;;;10.80;1.00;;;;;;5071571;28;20470;-66
2021/04/11 00:12:15;;;;;;;62.40;7.03;;;10.80;1.00;;;;;;5071521;28;20489;-66
2021/04/11 00:14:41;;;;;;;60.03;6.90;;;10.80;1.00;;;;;;5071723;28;20451;-66
2021/04/11 00:17:07;;;;;;;60.60;6.93;;;10.70;1.00;;;;;;5071724;28;20541;-66
2021/04/11 00:19:34;;;;;;;62.67;7.40;;;10.70;1.00;;;;;;5071691;28;20473;-66
2021/04/11 00:22:00;;;;;;;62.50;7.90;;;10.60;1.00;;;;;;5071584;28;20541;-66
2021/04/11 00:24:27;;;;;;;61.00;7.13;;;10.60;1.00;;;;;;5071843;28;20458;-66
2021/04/11 00:26:54;;;;;;;63.77;7.07;;;10.50;1.00;;;;;;5071908;28;20545;-66
2021/04/11 00:29:20;;;;;;;60.80;7.30;;;10.50;1.00;;;;;;5071668;28;20823;-66
2021/04/11 00:31:47;;;;;;;61.90;7.33;;;10.40;1.00;;;;;;5071650;28;20519;-66
2021/04/11 00:34:13;;;;;;;62.27;7.33;;;10.40;1.00;;;;;;5071454;28;20446;-66
2021/04/11 00:36:39;;;;;;;60.50;6.70;;;10.30;1.00;;;;;;5071427;28;20507;-66
2021/04/11 00:39:07;;;;;;;61.00;7.63;;;10.20;1.00;;;;;;5071553;28;20473;-66
2021/04/11 00:41:38;;;;;;;60.83;7.67;;;10.20;1.00;;;;;;5074927;28;20453;-66
2021/04/11 00:44:07;;;;;;;64.03;7.30;;;10.10;1.00;;;;;;5075576;28;20481;-66
2021/04/11 00:46:42;;;;;;;59.97;7.03;;;10.00;1.00;;;;;;5075477;28;20959;-66
2021/04/11 00:49:14;;;;;;;62.93;7.50;;;10.00;1.00;;;;;;5075224;28;20465;-66
2021/04/11 00:51:40;;;;;;;63.67;7.30;;;9.90;1.00;;;;;;5075510;28;20575;-66
2021/04/11 00:54:07;;;;;;;62.27;7.93;;;9.90;1.00;;;;;;5075339;28;20449;-66
2021/04/11 00:56:38;;;;;;;64.53;8.40;;;9.80;1.00;;;;;;5075265;28;20534;-66
2021/04/11 00:59:06;;;;;;;60.80;7.40;;;9.70;1.00;;;;;;5075282;28;21065;-66
2021/04/11 01:01:32;;;;;;;62.20;7.53;;;9.60;1.00;;;;;;5075306;28;20442;-67
2021/04/11 01:03:59;;;;;;;61.27;7.17;;;9.60;1.00;;;;;;5075048;28;20981;-66
2021/04/11 01:06:30;;;;;;;61.07;7.50;;;9.50;1.00;;;;;;5075515;28;20532;-66
2021/04/11 01:08:57;;;;;;;61.30;7.87;;;9.50;1.00;;;;;;5075097;28;20475;-66
2021/04/11 01:11:28;;;;;;;61.47;7.40;;;9.50;1.00;;;;;;5075094;28;20573;-66
2021/04/11 01:13:57;;;;;;;62.27;7.50;;;9.40;1.00;;;;;;5075186;28;20435;-66
2021/04/11 01:16:26;;;;;;;60.20;7.40;;;9.40;1.00;;;;;;5074729;28;20521;-67
2021/04/11 01:18:53;;;;;;;61.07;7.40;;;9.40;1.00;;;;;;5075148;28;20470;-67
2021/04/11 01:21:27;;;;;;;61.30;7.90;;;9.40;1.00;;;;;;5075015;28;20478;-65
2021/04/11 01:24:02;;;;;;;62.77;8.47;;;9.30;1.00;;;;;;5074993;28;20536;-64
2021/04/11 01:26:31;;;;;;;62.80;7.43;;;9.30;1.00;;;;;;5074721;28;20539;-67
2021/04/11 01:28:58;;;;;;;62.37;7.50;;;9.30;1.00;;;;;;5074579;28;20556;-65
2021/04/11 01:31:25;;;;;;;61.63;7.97;;;9.20;1.00;;;;;;5074860;28;20485;-66
2021/04/11 01:33:53;;;;;;;61.93;7.13;;;9.20;1.00;;;;;;5074625;28;20497;-67
2021/04/11 01:36:26;;;;;;;64.50;7.93;;;9.20;1.00;;;;;;5074460;28;20448;-66
2021/04/11 01:38:54;;;;;;;61.70;7.50;;;9.20;1.00;;;;;;5074461;28;20552;-66
2021/04/11 01:41:25;;;;;;;62.40;7.50;;;9.20;1.00;;;;;;5074328;28;20560;-66
2021/04/11 01:43:53;;;;;;;62.43;7.67;;;9.20;1.00;;;;;;5074645;28;20870;-66
2021/04/11 01:46:20;;;;;;;61.50;7.40;;;9.20;1.00;;;;;;5074438;28;20444;-67
2021/04/11 01:48:48;;;;;;;63.67;7.70;;;9.30;1.00;;;;;;5074431;28;20909;-67
2021/04/11 01:51:17;;;;;;;62.53;8.07;;;9.30;1.00;;;;;;5074107;28;20480;-66
2021/04/11 01:53:45;;;;;;;63.77;7.93;;;9.30;1.00;;;;;;5074036;28;20446;-67
2021/04/11 01:56:13;;;;;;;64.20;7.30;;;9.30;1.00;;;;;;5074163;28;20944;-64
2021/04/11 01:58:40;;;;;;;60.90;7.00;;;9.30;1.00;;;;;;5074237;28;20758;-64
2021/04/11 02:01:17;;;;;;;61.87;7.90;;;9.30;1.00;;;;;;5074058;28;20960;-64
2021/04/11 02:03:44;;;;;;;64.33;8.43;;;9.30;1.00;;;;;;5073990;28;20491;-66
2021/04/11 02:06:14;;;;;;;63.07;7.80;;;9.30;1.00;;;;;;5074346;28;20532;-66
2021/04/11 02:08:45;;;;;;;62.60;7.77;;;9.30;1.00;;;;;;5074104;28;20474;-66
2021/04/11 02:11:11;;;;;;;63.20;7.27;;;9.30;1.00;;;;;;5074083;28;20481;-66
2021/04/11 02:13:40;;;;;;;60.70;7.27;;;9.30;1.00;;;;;;5073726;28;21013;-67
2021/04/11 02:16:08;;;;;;;60.50;7.53;;;9.30;1.00;;;;;;5073883;28;20550;-66
2021/04/11 02:18:36;;;;;;;63.57;7.80;;;9.30;1.00;;;;;;5073657;28;20553;-67
2021/04/11 02:21:08;;;;;;;61.37;7.60;;;9.30;1.00;;;;;;5073621;28;20442;-65
2021/04/11 02:23:37;;;;;;;59.87;6.90;;;9.40;1.00;;;;;;5073791;28;20894;-65
2021/04/11 02:26:08;;;;;;;63.20;7.07;;;9.40;1.00;;;;;;5073837;28;20449;-65
2021/04/11 02:28:35;;;;;;;60.40;7.20;;;9.40;1.00;;;;;;5073873;28;21046;-66
2021/04/11 02:31:17;;;;;;;62.43;7.80;;;9.50;1.00;;;;;;5073524;28;20578;-66
2021/04/11 02:34:00;;;;;;;63.73;7.33;;;9.50;1.00;;;;;;5073628;28;20451;-66
2021/04/11 02:36:34;;;;;;;61.10;7.47;;;9.50;1.00;;;;;;5073522;28;20454;-66
2021/04/11 02:39:02;;;;;;;60.80;7.10;;;9.50;1.00;;;;;;5073257;28;20550;-65
2021/04/11 02:41:28;;;;;;;62.10;7.33;;;9.50;1.00;;;;;;5073341;28;20453;-65
2021/04/11 02:43:56;;;;;;;62.60;7.13;;;9.60;1.00;;;;;;5073079;28;20450;-65
2021/04/11 02:46:24;;;;;;;62.33;7.60;;;9.60;1.00;;;;;;5073342;28;20546;-65
2021/04/11 02:48:54;;;;;;;60.80;7.23;;;9.60;1.00;;;;;;5073302;28;20478;-65
2021/04/11 02:51:22;;;;;;;62.37;6.57;;;9.70;1.00;;;;;;5072984;28;20514;-66
2021/04/11 02:53:50;;;;;;;59.77;6.00;;;9.70;1.00;;;;;;5073071;28;20493;-66
2021/04/11 02:56:16;;;;;;;63.00;7.63;;;9.70;1.00;;;;;;5073017;28;20452;-66
2021/04/11 02:58:43;;;;;;;60.50;7.23;;;9.70;1.00;;;;;;5073080;28;20474;-65
2021/04/11 03:01:13;;;;;;;61.60;7.80;;;9.60;1.00;;;;;;5073085;28;20469;-66
2021/04/11 03:03:39;;;;;;;59.87;6.40;;;9.60;1.00;;;;;;5072345;28;21065;-67
2021/04/11 03:06:11;;;;;;;62.87;7.70;;;9.60;1.00;;;;;;5072833;28;20478;-66
2021/04/11 03:08:38;;;;;;;60.80;6.77;;;9.60;1.00;;;;;;5072788;28;20826;-67
2021/04/11 03:11:15;;;;;;;61.10;7.43;;;9.60;1.00;;;;;;5072623;28;20477;-67
2021/04/11 03:13:43;;;;;;;62.03;7.07;;;9.60;1.00;;;;;;5072820;28;20562;-67
2021/04/11 03:16:10;;;;;;;60.97;6.50;;;9.60;1.00;;;;;;5072724;28;20511;-67
2021/04/11 03:18:37;;;;;;;63.93;7.27;;;9.50;1.00;;;;;;5072528;28;20476;-67
2021/04/11 03:21:07;;;;;;;59.70;6.50;;;9.50;1.00;;;;;;5072632;28;20467;-66
2021/04/11 03:23:34;;;;;;;61.93;7.37;;;9.50;1.00;;;;;;5072654;28;20457;-66
2021/04/11 03:26:05;;;;;;;62.47;6.97;;;9.50;1.00;;;;;;5072621;28;20873;-67
2021/04/11 03:28:39;;;;;;;61.97;7.60;;;9.50;1.00;;;;;;5072693;28;20473;-67
2021/04/11 03:31:12;;;;;;;61.50;8.17;;;9.50;1.00;;;;;;5072491;28;20568;-66
2021/04/11 03:33:41;;;;;;;60.57;7.20;;;9.50;1.00;;;;;;5072116;28;21020;-67
2021/04/11 03:36:12;;;;;;;63.23;8.07;;;9.50;1.00;;;;;;5072382;28;20455;-67
2021/04/11 03:38:40;;;;;;;62.17;7.17;;;9.50;1.00;;;;;;5072467;28;20500;-66
2021/04/11 03:41:07;;;;;;;63.10;7.30;;;9.40;1.00;;;;;;5072271;28;20456;-67
2021/04/11 03:43:38;;;;;;;62.47;7.60;;;9.40;1.00;;;;;;5072028;28;20461;-67
2021/04/11 03:46:09;;;;;;;62.13;6.67;;;9.40;1.00;;;;;;5072229;28;20822;-66
2021/04/11 03:48:43;;;;;;;60.67;7.10;;;9.40;1.00;;;;;;5071952;28;20557;-67
2021/04/11 03:51:17;;;;;;;63.70;7.70;;;9.40;1.00;;;;;;5071960;28;20484;-66
2021/04/11 03:53:48;;;;;;;60.20;6.83;;;9.40;1.00;;;;;;5071871;28;20461;-66
2021/04/11 03:56:19;;;;;;;61.57;7.27;;;9.40;1.00;;;;;;5071985;28;21059;-66
2021/04/11 03:58:48;;;;;;;60.80;7.20;;;9.40;1.00;;;;;;5071850;28;20476;-67
2021/04/11 04:01:17;;;;;;;60.97;7.43;;;9.40;1.00;;;;;;5072164;28;20480;-66
2021/04/11 04:03:45;;;;;;;61.57;7.87;;;9.40;1.00;;;;;;5071997;28;20538;-67
2021/04/11 04:06:19;;;;;;;60.50;7.40;;;9.40;1.00;;;;;;5071900;28;20894;-67
2021/04/11 04:08:45;;;;;;;62.33;7.70;;;9.40;1.00;;;;;;5071897;28;21016;-67
2021/04/11 04:11:20;;;;;;;62.33;6.80;;;9.30;1.00;;;;;;5071739;28;20546;-66
2021/04/11 04:13:54;;;;;;;60.70;6.63;;;9.30;1.00;;;;;;5071620;28;20800;-66
2021/04/11 04:16:30;;;;;;;61.77;7.60;;;9.40;1.00;;;;;;5071370;28;20535;-66
2021/04/11 04:19:07;;;;;;;60.27;6.67;;;9.40;1.00;;;;;;5071785;28;20513;-66
2021/04/11 04:22:05;;;;;;;62.93;7.60;;;9.40;1.00;;;;;;5071709;28;20576;-66
2021/04/11 04:24:48;;;;;;;60.90;7.03;;;9.40;1.00;;;;;;5072001;28;20445;-66
2021/04/11 04:27:28;;;;;;;60.80;6.63;;;9.40;1.00;;;;;;5071995;28;20433;-66
2021/04/11 04:30:07;;;;;;;59.27;6.40;;;9.40;1.00;;;;;;5071648;28;20557;-67
2021/04/11 04:32:44;;;;;;;60.77;6.63;;;9.40;1.00;;;;;;5071801;28;20571;-67
2021/04/11 04:35:18;;;;;;;58.57;5.97;;;9.40;1.00;;;;;;5071716;28;20835;-67
2021/04/11 04:37:57;;;;;;;61.53;6.63;;;9.40;1.00;;;;;;5071690;28;20531;-66
2021/04/11 04:40:42;;;;;;;60.50;6.30;;;9.40;1.00;;;;;;5071429;28;20898;-67
2021/04/11 04:43:17;;;;;;;61.87;6.83;;;9.40;1.00;;;;;;5071651;28;20459;-67
2021/04/11 04:45:48;;;;;;;59.40;6.23;;;9.50;1.00;;;;;;5071566;28;20453;-66
2021/04/11 04:48:18;;;;;;;61.30;6.70;;;9.50;1.00;;;;;;5071381;28;20534;-67
2021/04/11 04:50:49;;;;;;;58.83;5.80;;;9.50;1.00;;;;;;5071954;28;20458;-67
2021/04/11 04:53:24;;;;;;;60.53;6.00;;;9.50;1.00;;;;;;5071568;28;20461;-66
2021/04/11 04:55:54;;;;;;;58.43;5.30;;;9.50;1.00;;;;;;5071496;28;20454;-66
2021/04/11 04:58:25;;;;;;;59.67;5.50;;;9.60;1.00;;;;;;5071429;28;20470;-67
2021/04/11 05:00:55;;;;;;;59.47;6.30;;;9.60;1.00;;;;;;5071453;28;20454;-67
2021/04/11 05:03:25;;;;;;;59.87;6.10;;;9.60;1.00;;;;;;5070922;28;20450;-67
2021/04/11 05:06:04;;;;;;;59.43;5.57;;;9.60;1.00;;;;;;5071251;28;20454;-66
2021/04/11 05:08:37;;;;;;;59.17;6.00;;;9.60;1.00;;;;;;5071322;28;20467;-66
2021/04/11 05:11:09;;;;;;;63.97;6.00;;;9.70;1.00;;;;;;5071262;28;20540;-66
2021/04/11 05:13:39;;;;;;;60.83;6.47;;;9.60;1.00;;;;;;5071216;28;20446;-66
2021/04/11 05:16:10;;;;;;;60.23;6.00;;;9.70;1.00;;;;;;5071434;28;20941;-67
2021/04/11 05:18:40;;;;;;;59.63;6.30;;;9.70;1.00;;;;;;5071280;28;20505;-67
2021/04/11 05:21:11;;;;;;;59.47;6.30;;;9.70;1.00;;;;;;5071571;28;20820;-67
2021/04/11 05:23:43;;;;;;;60.37;6.47;;;9.80;1.00;;;;;;5071567;28;20837;-67
2021/04/11 05:26:14;;;;;;;60.57;6.30;;;9.80;1.00;;;;;;5072083;28;20982;-67
2021/04/11 05:28:45;;;;;;;58.90;5.97;;;9.90;1.00;;;;;;5074827;28;20474;-67
2021/04/11 05:31:16;;;;;;;59.80;6.73;;;10.00;1.00;;;;;;5074681;28;20577;-67
2021/04/11 05:33:44;;;;;;;62.60;7.67;;;10.00;1.00;;;;;;5074624;28;20505;-67
2021/04/11 05:36:23;;;;;;;59.77;5.80;;;10.00;1.00;;;;;;5074454;28;21055;-67
2021/04/11 05:39:03;;;;;;;60.40;6.13;;;10.10;1.00;;;;;;5074466;28;20475;-67
2021/04/11 05:41:34;;;;;;;59.47;5.73;;;10.20;1.00;;;;;;5074523;28;20898;-67
2021/04/11 05:44:08;;;;;;;58.90;5.97;;;10.20;1.00;;;;;;5074462;28;20809;-67
2021/04/11 05:46:39;;;;;;;61.67;6.57;;;10.20;1.00;;;;;;5074405;28;20534;-66
2021/04/11 05:49:10;;;;;;;61.47;6.97;;;10.30;1.00;;;;;;5074283;28;20463;-66
2021/04/11 05:51:40;;;;;;;60.07;6.30;;;10.30;1.00;;;;;;5074432;28;20486;-67
2021/04/11 05:54:14;;;;;;;60.43;5.73;;;10.40;1.00;;;;;;5074311;28;20454;-66
2021/04/11 05:56:43;;;;;;;60.43;5.57;;;10.40;1.00;;;;;;5074402;28;20537;-66
2021/04/11 05:59:13;;;;;;;61.80;5.67;;;10.50;1.00;;;;;;5074156;28;20562;-66
2021/04/11 06:01:42;;;;;;;58.77;5.43;;;10.50;1.00;;;;;;5074067;28;20534;-65
2021/04/11 06:04:12;;;;;;;59.07;6.00;;;10.50;1.00;;;;;;5074146;28;20585;-66
2021/04/11 06:06:45;;;;;;;64.30;5.50;;;10.60;1.00;;;;;;5074349;28;20533;-66
2021/04/11 06:09:21;;;;;;;65.60;6.10;;;10.60;1.00;;;;;;5073890;28;20481;-66
2021/04/11 06:11:54;;;;;;;64.10;6.40;;;10.70;1.00;;;;;;5073981;28;20489;-66
2021/04/11 06:14:26;;;;;;;59.30;6.10;;;10.70;1.00;;;;;;5073996;28;20450;-66
2021/04/11 06:16:52;;;;;;;59.97;5.67;;;10.70;1.00;;;;;;5073963;28;20544;-66
2021/04/11 06:19:20;;;;;;;58.43;5.20;;;10.70;1.00;;;;;;5073942;28;20499;-66
2021/04/11 06:21:54;;;;;;;63.67;5.57;;;10.80;1.00;;;;;;5073905;28;20452;-66
2021/04/11 06:24:39;;;;;;;59.43;5.40;;;10.80;1.00;;;;;;5073872;28;20443;-66
2021/04/11 06:27:12;;;;;;;59.20;5.23;;;10.90;1.00;;;;;;5073663;28;20972;-66
2021/04/11 06:29:53;;;;;;;58.80;5.50;;;11.00;1.00;;;;;;5073678;28;20468;-66
2021/04/11 06:32:20;;;;;;;59.63;5.80;;;11.00;1.00;;;;;;5073494;28;20566;-66
2021/04/11 06:34:51;;;;;;;59.57;5.37;;;11.10;1.00;;;;;;5073504;28;20520;-66
2021/04/11 06:37:21;;;;;;;59.47;5.77;;;11.20;1.00;;;;;;5072688;28;21007;-66
2021/04/11 06:39:50;;;;;;;62.30;6.17;;;11.20;1.00;;;;;;5073057;28;20466;-66
2021/04/11 06:42:54;;;;;;;58.80;5.73;;;11.30;1.00;;;;;;5073434;28;20526;-66
2021/04/11 06:45:30;;;;;;;59.00;5.80;;;11.40;1.00;;;;;;5039645;28;20469;-66
2021/04/11 06:48:38;;;;;;;58.07;4.90;;;11.50;1.00;;;;;;5073487;28;20526;-66
2021/04/11 06:51:28;;;;;;;59.97;5.40;;;11.60;1.00;;;;;;5073174;28;20526;-66
2021/04/11 06:54:18;;;;;;;61.27;5.23;;;11.80;1.00;;;;;;5073034;28;20454;-66
2021/04/11 06:57:07;;;;;;;58.37;5.17;;;11.90;1.00;;;;;;5072962;28;20526;-66
2021/04/11 06:59:55;;;;;;;58.90;5.47;;;11.90;1.00;;;;;;5072880;28;21051;-66
2021/04/11 07:03:10;;;;;;;61.67;5.47;;;12.00;1.00;;;;;;5073139;28;20475;-66
2021/04/11 07:05:57;;;;;;;61.73;6.30;;;12.10;1.00;;;;;;5010848;28;20568;-66
2021/04/11 07:08:57;;;;;;;59.53;5.70;;;12.20;1.00;;;;;;5010542;28;20505;-66
2021/04/11 07:12:24;;;;;;;65.70;5.23;;;12.40;1.00;;;;;;5060869;28;20493;-66
2021/04/11 07:15:15;;;;;;;60.57;5.27;;;12.60;1.00;;;;;;5010637;28;20458;-66
2021/04/11 07:18:11;;;;;;;60.40;5.47;;;12.70;1.00;;;;;;5068509;28;20479;-66
2021/04/11 07:21:16;;;;;;;65.00;5.70;;;12.80;1.00;;;;;;5047026;28;20447;-66
2021/04/11 07:24:23;;;;;;;57.80;5.07;;;12.90;1.00;;;;;;5072517;28;20814;-67
2021/04/11 07:26:55;;;;;;;59.47;4.80;;;13.00;1.00;;;;;;5072278;28;20482;-67
2021/04/11 07:29:35;;;;;;;58.57;4.77;;;13.10;1.00;;;;;;5072493;28;20551;-67
2021/04/11 07:32:25;;;;;;;59.87;4.70;;;13.20;1.00;;;;;;5072364;28;20971;-67
2021/04/11 07:35:12;;;;;;;58.57;4.97;;;13.40;1.00;;;;;;5072369;28;20456;-67
2021/04/11 07:37:57;;;;;;;59.70;6.10;;;13.50;1.00;;;;;;5072199;28;20522;-67
2021/04/11 07:40:34;;;;;;;60.27;5.60;;;13.60;1.00;;;;;;5072293;28;20463;-67
2021/04/11 07:43:22;;;;;;;60.00;5.03;;;13.80;1.00;;;;;;5072245;28;20879;-67
2021/04/11 07:46:27;;;;;;;59.17;4.83;;;14.00;1.00;;;;;;5072020;28;20936;-67
2021/04/11 07:49:26;;;;;;;57.37;4.23;;;14.20;1.00;;;;;;5071926;28;20555;-67
2021/04/11 07:52:04;;;;;;;58.93;4.70;;;14.40;1.00;;;;;;5072051;28;20483;-68
2021/04/11 07:54:53;;;;;;;58.50;5.10;;;14.60;1.00;;;;;;5072324;28;20568;-67
2021/04/11 07:57:49;;;;;;;62.30;4.70;;;14.80;1.00;;;;;;5072155;28;20873;-65
2021/04/11 08:00:36;;;;;;;60.80;5.60;;;15.00;1.00;;;;;;5071842;28;20551;-66
2021/04/11 08:03:21;;;;;;;64.70;5.20;;;15.10;1.00;;;;;;5072020;28;20523;-66
2021/04/11 08:06:10;;;;;;;59.37;5.23;;;15.40;1.00;;;;;;5072046;28;20919;-66
2021/04/11 08:08:55;;;;;;;57.63;4.17;;;15.50;1.00;;;;;;5071635;28;21047;-67
2021/04/11 08:12:10;;;;;;;58.33;4.47;;;15.70;1.00;;;;;;5072089;28;20489;-66
2021/04/11 08:14:44;;;;;;;59.20;5.03;;;15.90;1.00;;;;;;5056373;28;20461;-66
2021/04/11 08:17:26;;;;;;;59.20;4.63;;;16.10;1.00;;;;;;5071593;28;20518;-66
2021/04/11 08:20:20;;;;;;;58.27;4.47;;;16.40;1.00;;;;;;5071731;28;20487;-66
2021/04/11 08:23:13;;;;;;;58.27;5.40;;;16.60;1.00;;;;;;5071583;28;20440;-66
2021/04/11 08:25:47;;;;;;;58.40;4.60;;;16.80;1.00;;;;;;5071911;28;20532;-66
2021/04/11 08:28:38;;;;;;;57.90;4.50;;;17.00;1.00;;;;;;5071648;28;20552;-66
2021/04/11 08:31:25;;;;;;;57.93;4.53;;;17.20;1.00;;;;;;5071617;28;20531;-66
2021/04/11 08:34:24;;;;;;;57.70;4.10;;;17.40;1.00;;;;;;5071399;28;20569;-67
2021/04/11 08:37:29;;;;;;;57.60;3.70;;;17.70;1.00;;;;;;5071546;28;20449;-66
2021/04/11 08:40:10;;;;;;;58.87;3.63;;;18.00;1.00;;;;;;5071273;28;20567;-66
2021/04/11 08:43:11;;;;;;;57.73;3.40;;;18.10;1.00;;;;;;5071573;28;20848;-66
2021/04/11 08:45:51;;;;;;;57.00;3.20;;;18.30;1.00;;;;;;5071620;28;20983;-66
2021/04/11 08:48:33;;;;;;;59.67;3.87;;;18.50;1.00;;;;;;5071205;28;20466;-66
2021/04/11 08:51:08;;;;;;;57.93;3.67;;;18.70;1.00;;;;;;5071341;28;20483;-66
2021/04/11 08:53:41;;;;;;;57.37;3.30;;;18.80;1.00;;;;;;5071374;28;20437;-66
2021/04/11 08:56:17;;;;;;;63.93;3.60;;;18.90;1.00;;;;;;5071354;28;20529;-66
2021/04/11 08:58:55;;;;;;;59.80;3.50;;;19.00;1.00;;;;;;5071207;28;20544;-66
2021/04/11 09:01:33;;;;;;;57.60;3.00;;;19.00;1.00;;;;;;5072929;28;20442;-66
2021/04/11 09:04:17;;;;;;;56.60;2.80;;;19.10;1.00;;;;;;5075228;28;20453;-66
2021/04/11 09:07:05;;;;;;;57.20;3.37;;;19.10;1.00;;;;;;5075157;28;20863;-66
2021/04/11 09:09:45;;;;;;;56.90;3.40;;;19.10;1.00;;;;;;5075184;28;20553;-66
2021/04/11 09:12:20;;;;;;;56.77;2.87;;;19.20;1.00;;;;;;5074933;28;20570;-66
2021/04/11 09:15:00;;;;;;;56.23;2.80;;;19.40;1.00;;;;;;5074951;28;20448;-66
2021/04/11 09:17:50;;;;;;;56.57;3.40;;;19.40;1.00;;;;;;5074959;28;20450;-66
2021/04/11 09:20:22;;;;;;;55.97;3.00;;;19.40;1.00;;;;;;5075001;28;20910;-66
2021/04/11 09:23:05;;;;;;;57.50;3.23;;;19.60;1.00;;;;;;5074850;28;20443;-66
2021/04/11 09:25:34;;;;;;;56.40;3.03;;;19.60;1.00;;;;;;5074691;28;21017;-66
2021/04/11 09:28:16;;;;;;;57.20;3.10;;;19.60;1.00;;;;;;5074518;28;20549;-66
2021/04/11 09:31:19;;;;;;;56.67;3.00;;;19.50;1.00;;;;;;5075129;28;20446;-66
2021/04/11 09:34:15;;;;;;;56.90;3.17;;;19.30;1.00;;;;;;5074709;28;20454;-66
2021/04/11 09:36:50;;;;;;;56.57;2.90;;;19.40;1.00;;;;;;5074807;28;20450;-66
2021/04/11 09:39:50;;;;;;;57.20;3.17;;;19.40;1.00;;;;;;5074432;28;20469;-66
2021/04/11 09:42:45;;;;;;;56.67;2.80;;;19.50;1.00;;;;;;5074484;28;20534;-66
2021/04/11 09:45:28;;;;;;;55.90;2.57;;;19.40;1.00;;;;;;5074478;28;20443;-66
2021/04/11 09:48:21;;;;;;;56.77;3.00;;;19.50;1.00;;;;;;5074433;28;20443;-66
2021/04/11 09:50:52;;;;;;;56.10;2.70;;;19.50;1.00;;;;;;5074435;28;20529;-67
2021/04/11 09:53:49;;;;;;;57.57;3.03;;;19.50;1.00;;;;;;5074211;28;20482;-66
2021/04/11 09:56:53;;;;;;;56.50;2.73;;;19.50;1.00;;;;;;5074310;28;20462;-67
2021/04/11 09:59:32;;;;;;;57.50;2.80;;;19.50;1.00;;;;;;5042530;28;20508;-66
2021/04/11 10:02:11;;;;;;;57.20;2.70;;;19.60;1.00;;;;;;5074036;28;20442;-66
2021/04/11 10:04:50;;;;;;;56.60;2.70;;;19.90;1.00;;;;;;5074233;28;20449;-66
2021/04/11 10:07:37;;;;;;;56.83;2.50;;;20.20;1.00;;;;;;5074078;28;20451;-66
2021/04/11 10:10:23;;;;;;;56.90;2.73;;;20.50;1.00;;;;;;5074483;28;20545;-67
2021/04/11 10:13:05;;;;;;;56.43;2.70;;;20.90;1.00;;;;;;5073870;28;20482;-66
2021/04/11 10:15:39;;;;;;;56.30;2.30;;;21.60;1.00;;;;;;5073949;28;20541;-66
2021/04/11 10:18:32;;;;;;;56.27;2.80;;;21.70;1.00;;;;;;5073814;28;20480;-66
2021/04/11 10:21:12;;;;;;;56.47;3.17;;;22.00;1.00;;;;;;5073893;28;20445;-66
2021/04/11 10:23:51;;;;;;;57.77;2.83;;;22.30;1.00;;;;;;5073811;28;20489;-66
2021/04/11 10:26:23;;;;;;;56.30;2.87;;;22.70;1.00;;;;;;5073768;28;20875;-66
2021/04/11 10:28:54;;;;;;;58.80;3.00;;;22.80;1.00;;;;;;5073803;28;20503;-66
2021/04/11 10:31:30;;;;;;;57.57;2.90;;;23.10;1.00;;;;;;5073783;28;20461;-66
2021/04/11 10:34:06;;;;;;;57.20;3.23;;;23.30;1.00;;;;;;5073626;28;20451;-66
2021/04/11 10:36:38;;;;;;;56.50;3.10;;;23.80;1.00;;;;;;5073784;28;20857;-66
2021/04/11 10:39:13;;;;;;;56.97;3.00;;;24.10;1.00;;;;;;5073667;28;20470;-66
2021/04/11 10:41:53;;;;;;;56.70;3.10;;;24.50;1.00;;;;;;5073387;28;20462;-66
2021/04/11 10:44:38;;;;;;;57.70;2.73;;;25.30;1.00;;;;;;5073666;28;20462;-66
2021/04/11 10:47:32;;;;;;;57.23;2.90;;;25.60;1.00;;;;;;5073210;28;20522;-66
2021/04/11 10:50:07;;;;;;;56.47;2.60;;;25.80;1.00;;;;;;5073478;28;20561;-66
2021/04/11 10:52:47;;;;;;;56.50;2.83;;;26.10;1.00;;;;;;5073109;28;21063;-66
2021/04/11 10:55:27;;;;;;;57.30;2.90;;;26.30;1.00;;;;;;5073105;28;20796;-66
2021/04/11 10:58:47;;;;;;;56.93;2.63;;;26.50;1.00;;;;;;5073327;28;20526;-66
2021/04/11 11:01:45;;;;;;;62.03;8.30;;;26.60;1.00;;;;;;5073086;28;20451;-66
2021/04/11 11:04:54;;;;;;;57.43;2.90;;;26.60;1.00;;;;;;5072646;28;20967;-66
2021/04/11 11:07:44;;;;;;;56.17;2.53;;;26.30;1.00;;;;;;5065538;28;20964;-66
2021/04/11 11:10:21;;;;;;;58.47;3.83;;;25.40;1.00;;;;;;5072868;28;20526;-66
2021/04/11 11:13:07;;;;;;;56.70;3.17;;;24.50;1.00;;;;;;5072876;28;20533;-66
2021/04/11 11:16:03;;;;;;;60.20;3.57;;;24.20;1.00;;;;;;5072454;28;21008;-66
2021/04/11 11:19:15;;;;;;;56.37;2.93;;;24.50;1.00;;;;;;5072359;28;20475;-66
2021/04/11 11:22:11;;;;;;;59.47;3.07;;;25.50;1.00;;;;;;5072694;28;20539;-66
2021/04/11 11:25:14;;;;;;;57.70;3.03;;;26.10;1.00;;;;;;5072032;28;20446;-66
2021/04/11 11:28:00;;;;;;;57.23;2.50;;;26.30;1.00;;;;;;5072670;28;20526;-66
2021/04/11 11:30:56;;;;;;;57.27;4.63;;;25.90;1.00;;;;;;5072439;28;20831;-66
2021/04/11 11:33:32;;;;;;;61.43;7.17;;;25.20;1.00;;;;;;5072456;28;20481;-66
2021/04/11 11:36:11;;;;;;;57.17;3.47;;;24.40;1.00;;;;;;5072392;28;20966;-66
2021/04/11 11:38:50;;;;;;;58.37;2.77;;;23.60;1.00;;;;;;5072246;28;20910;-66
2021/04/11 11:41:27;;;;;;;57.57;3.20;;;22.70;1.00;;;;;;5072047;28;20462;-66
2021/04/11 11:44:02;;;;;;;58.17;3.40;;;22.00;1.00;;;;;;5072310;28;20448;-66
2021/04/11 11:46:39;;;;;;;57.47;3.30;;;21.50;1.00;;;;;;5072318;28;20475;-66
2021/04/11 11:49:17;;;;;;;59.90;6.23;;;21.00;1.00;;;;;;5072111;28;20954;-66
2021/04/11 11:51:51;;;;;;;57.13;3.83;;;20.80;1.00;;;;;;5071914;28;20965;-66
2021/04/11 11:54:24;;;;;;;57.77;3.50;;;20.60;1.00;;;;;;5072069;28;21015;-66
2021/04/11 11:57:07;;;;;;;58.57;3.90;;;20.50;1.00;;;;;;5072430;28;20535;-66
2021/04/11 11:59:39;;;;;;;56.97;3.20;;;20.50;1.00;;;;;;5071976;28;20465;-66
2021/04/11 12:02:17;;;;;;;56.10;3.17;;;20.50;1.00;;;;;;5071856;28;20835;-66
2021/04/11 12:04:58;;;;;;;57.20;3.20;;;20.60;1.00;;;;;;5072127;28;20452;-66
2021/04/11 12:07:31;;;;;;;58.93;4.80;;;20.90;1.00;;;;;;5072083;28;20502;-66
2021/04/11 12:10:25;;;;;;;57.40;3.00;;;21.20;1.00;;;;;;5071809;28;20892;-66
2021/04/11 12:13:17;;;;;;;57.27;4.40;;;21.80;1.00;;;;;;5071871;28;20885;-66
2021/04/11 12:15:56;;;;;;;55.87;2.70;;;22.60;1.00;;;;;;5071692;28;20454;-66
2021/04/11 12:18:25;;;;;;;56.47;2.87;;;23.60;1.00;;;;;;5071710;28;20480;-66
2021/04/11 12:21:02;;;;;;;57.00;3.20;;;24.50;1.00;;;;;;5071650;28;20841;-66
2021/04/11 12:23:32;;;;;;;57.03;3.30;;;25.40;1.00;;;;;;5071680;28;20443;-66
2021/04/11 12:26:12;;;;;;;56.43;2.90;;;25.80;1.00;;;;;;5071851;28;20981;-66
2021/04/11 12:28:41;;;;;;;57.87;3.67;;;25.80;1.00;;;;;;5071556;28;20467;-66
2021/04/11 12:31:28;;;;;;;57.40;3.20;;;25.60;1.00;;;;;;5071493;28;20884;-66
2021/04/11 12:34:01;;;;;;;56.87;2.63;;;25.50;1.00;;;;;;5071414;28;20435;-66
2021/04/11 12:36:37;;;;;;;58.57;3.00;;;25.50;1.00;;;;;;5073404;28;20568;-66
2021/04/11 12:39:08;;;;;;;57.67;3.00;;;25.50;1.00;;;;;;5075735;28;20544;-66
2021/04/11 12:41:42;;;;;;;57.20;2.67;;;25.40;1.00;;;;;;5075474;28;20557;-66
2021/04/11 12:44:17;;;;;;;56.97;2.73;;;25.20;1.00;;;;;;5075887;28;20482;-66
2021/04/11 12:46:59;;;;;;;58.63;3.07;;;25.10;1.00;;;;;;5075563;28;20525;-66
2021/04/11 12:49:30;;;;;;;56.93;3.03;;;25.10;1.00;;;;;;5075815;28;20497;-66
2021/04/11 12:52:02;;;;;;;56.80;2.70;;;25.00;1.00;;;;;;5075540;28;20472;-66
2021/04/11 12:54:36;;;;;;;57.27;3.30;;;24.80;1.00;;;;;;5075295;28;20463;-66
2021/04/11 12:57:05;;;;;;;57.50;3.40;;;24.30;1.00;;;;;;5075487;28;20542;-66
2021/04/11 12:59:38;;;;;;;57.33;3.10;;;23.80;1.00;;;;;;5075273;28;20574;-66
2021/04/11 13:02:15;;;;;;;58.10;3.07;;;23.30;1.00;;;;;;5075163;28;20936;-66
2021/04/11 13:04:46;;;;;;;57.60;3.20;;;22.80;1.00;;;;;;5075181;28;20447;-66
2021/04/11 13:07:18;;;;;;;56.77;2.87;;;22.40;1.00;;;;;;5075253;28;20479;-66
2021/04/11 13:10:09;;;;;;;57.07;3.20;;;22.00;1.00;;;;;;5075002;28;20995;-66
2021/04/11 13:12:40;;;;;;;58.90;3.83;;;21.60;1.00;;;;;;5074850;28;20514;-66
2021/04/11 13:15:19;;;;;;;57.60;3.40;;;21.30;1.00;;;;;;5075155;28;20433;-66
2021/04/11 13:17:57;;;;;;;57.27;3.40;;;21.00;1.00;;;;;;5075114;28;20530;-66
2021/04/11 13:20:26;;;;;;;57.37;4.70;;;20.70;1.00;;;;;;5074965;28;20455;-66
2021/04/11 13:22:57;;;;;;;58.40;3.73;;;20.40;1.00;;;;;;5074481;28;20536;-66
2021/04/11 13:25:32;;;;;;;56.87;3.30;;;20.20;1.00;;;;;;5075134;28;20482;-66
2021/04/11 13:28:05;;;;;;;56.37;2.90;;;20.10;1.00;;;;;;5074828;28;20543;-66
2021/04/11 13:30:38;;;;;;;57.93;2.93;;;20.10;1.00;;;;;;5074784;28;20455;-66
2021/04/11 13:33:15;;;;;;;56.10;2.80;;;20.10;1.00;;;;;;5074597;28;20492;-66
2021/04/11 13:35:47;;;;;;;57.53;3.30;;;20.20;1.00;;;;;;5074594;28;20518;-66
2021/04/11 13:38:19;;;;;;;58.80;3.30;;;20.20;1.00;;;;;;5074679;28;20540;-66
2021/04/11 13:40:46;;;;;;;59.23;3.10;;;20.10;1.00;;;;;;5074421;28;20454;-66